Time;durP1;ratioP1;P1;durP2;ratioP2;P2;SDS_P1;SDS_P2;PMS_P1;PMS_P2;Temp;Humidity;BMP_temperature;BMP_pressure;BME280_temperature;BME280_humidity;BME280_pressure;Samples;Min_cycle;Max_cycle;Signal;HPM_P1;HPM_P2
2021/07/09 00:02:33;;;;;;;13.30;7.13;;;15.30;99.90;;;;;;4950950;29;20043;-91
2021/07/09 00:05:00;;;;;;;12.07;8.05;;;15.30;99.90;;;;;;4964662;28;20423;-90
2021/07/09 00:07:27;;;;;;;19.42;7.80;;;15.30;99.90;;;;;;4977022;28;20902;-90
2021/07/09 00:09:53;;;;;;;14.82;7.07;;;15.20;99.90;;;;;;4977640;28;20125;-89
2021/07/09 00:12:19;;;;;;;19.27;6.72;;;15.30;99.90;;;;;;4985704;28;20054;-92
2021/07/09 00:14:45;;;;;;;10.45;6.30;;;15.20;99.90;;;;;;4980938;28;20105;-90
2021/07/09 00:17:11;;;;;;;12.30;7.25;;;15.20;99.90;;;;;;4973807;28;20039;-89
2021/07/09 00:19:37;;;;;;;16.02;7.18;;;15.20;99.90;;;;;;4955572;28;20061;-89
2021/07/09 00:22:03;;;;;;;13.43;7.10;;;15.20;99.90;;;;;;4974051;28;20050;-89
2021/07/09 00:24:29;;;;;;;14.38;6.45;;;15.20;99.90;;;;;;4955389;28;20546;-89
2021/07/09 00:26:56;;;;;;;11.02;6.60;;;15.20;99.90;;;;;;4986458;28;20485;-88
2021/07/09 00:29:21;;;;;;;18.00;6.25;;;15.20;99.90;;;;;;4973336;28;20042;-91
2021/07/09 00:31:47;;;;;;;14.65;6.90;;;15.20;99.90;;;;;;5003683;28;20384;-90
2021/07/09 00:34:15;;;;;;;11.35;6.00;;;15.20;99.90;;;;;;4974013;28;20368;-90
2021/07/09 00:36:41;;;;;;;10.95;6.88;;;15.20;99.90;;;;;;4989275;28;20034;-91
2021/07/09 00:39:08;;;;;;;10.40;6.10;;;15.20;99.90;;;;;;4975347;28;20117;-89
2021/07/09 00:41:34;;;;;;;11.90;6.60;;;15.20;99.90;;;;;;4965840;28;20075;-90
2021/07/09 00:44:01;;;;;;;13.20;6.68;;;15.20;99.90;;;;;;4970755;28;20129;-88
2021/07/09 00:46:32;;;;;;;15.27;6.32;;;15.20;99.90;;;;;;4966702;28;20051;-89
2021/07/09 00:48:58;;;;;;;13.98;6.35;;;15.20;99.90;;;;;;4995068;28;20038;-90
2021/07/09 00:51:23;;;;;;;7.88;6.05;;;15.20;99.90;;;;;;4975829;28;20395;-92
2021/07/09 00:53:49;;;;;;;15.07;7.05;;;15.20;99.90;;;;;;4957608;28;20049;-90
2021/07/09 00:56:15;;;;;;;18.67;7.35;;;15.20;99.90;;;;;;4957474;28;20094;-90
2021/07/09 00:58:41;;;;;;;12.13;7.60;;;15.20;99.90;;;;;;4982912;28;20496;-90
2021/07/09 01:01:07;;;;;;;14.02;7.80;;;15.10;99.90;;;;;;4984339;28;20051;-90
2021/07/09 01:03:33;;;;;;;16.02;7.57;;;15.10;99.90;;;;;;4957111;28;20085;-90
2021/07/09 01:06:00;;;;;;;13.52;7.95;;;15.10;99.90;;;;;;4940310;28;20082;-92
2021/07/09 01:08:26;;;;;;;16.30;10.38;;;14.90;99.90;;;;;;4971540;28;20035;-92
2021/07/09 01:10:52;;;;;;;10.65;5.78;;;14.90;99.90;;;;;;4984918;28;20069;-91
2021/07/09 01:13:18;;;;;;;15.82;9.27;;;14.80;99.90;;;;;;4974594;28;20094;-93
2021/07/09 01:15:44;;;;;;;18.23;11.18;;;14.60;99.90;;;;;;4975159;28;20045;-91
2021/07/09 01:18:10;;;;;;;17.42;11.18;;;14.40;99.90;;;;;;4980038;28;20080;-91
2021/07/09 01:20:36;;;;;;;15.10;10.07;;;14.30;99.90;;;;;;4972803;28;20150;-90
2021/07/09 01:23:06;;;;;;;27.02;12.93;;;14.20;99.90;;;;;;4973110;28;20055;-92
2021/07/09 01:25:32;;;;;;;31.73;16.40;;;14.10;99.90;;;;;;4984187;28;20050;-90
2021/07/09 01:28:05;;;;;;;41.92;19.27;;;14.10;99.90;;;;;;4992235;28;20041;-90
2021/07/09 01:30:33;;;;;;;54.97;23.13;;;14.20;99.90;;;;;;4982035;28;20039;-90
2021/07/09 01:32:59;;;;;;;37.53;16.23;;;14.20;99.90;;;;;;4974364;28;20038;-90
2021/07/09 01:35:27;;;;;;;54.33;22.73;;;14.20;99.90;;;;;;4976084;28;20043;-92
2021/07/09 01:37:57;;;;;;;69.60;26.30;;;14.20;99.90;;;;;;4954752;28;20047;-90
2021/07/09 01:40:24;;;;;;;67.60;27.33;;;14.30;99.90;;;;;;4934380;29;20134;-92
2021/07/09 01:42:51;;;;;;;64.25;24.60;;;14.30;99.90;;;;;;4968537;28;20078;-89
2021/07/09 01:45:17;;;;;;;63.83;25.63;;;14.30;99.90;;;;;;4973873;28;20047;-92
2021/07/09 01:47:42;;;;;;;59.53;22.58;;;14.20;99.90;;;;;;4953516;28;20035;-92
2021/07/09 01:50:09;;;;;;;47.70;19.75;;;14.20;99.90;;;;;;4961011;28;20053;-91
2021/07/09 01:52:35;;;;;;;52.35;21.33;;;14.20;99.90;;;;;;4977715;28;20046;-91
2021/07/09 01:55:02;;;;;;;42.45;20.42;;;14.00;99.90;;;;;;4959209;28;20097;-91
2021/07/09 01:57:29;;;;;;;52.15;23.60;;;13.90;99.90;;;;;;4955178;28;20138;-93
2021/07/09 01:59:56;;;;;;;54.78;26.02;;;13.80;99.90;;;;;;4967842;28;20101;-91
2021/07/09 02:02:22;;;;;;;61.63;24.73;;;13.80;99.90;;;;;;4979501;28;20065;-90
2021/07/09 02:04:51;;;;;;;42.22;20.00;;;13.80;99.90;;;;;;4982428;28;20502;-90
2021/07/09 02:07:18;;;;;;;56.55;25.55;;;13.70;99.90;;;;;;5005245;28;20128;-89
2021/07/09 02:09:47;;;;;;;59.50;21.45;;;13.70;99.90;;;;;;4970529;28;20088;-91
2021/07/09 02:12:15;;;;;;;37.70;16.48;;;13.60;99.90;;;;;;4998617;28;20497;-91
2021/07/09 02:14:41;;;;;;;57.70;22.92;;;13.50;99.90;;;;;;4980946;28;20054;-91
2021/07/09 02:17:13;;;;;;;65.68;25.23;;;13.40;99.90;;;;;;4955701;28;20038;-91
2021/07/09 02:19:40;;;;;;;62.80;25.48;;;13.40;99.90;;;;;;4997985;28;20092;-89
2021/07/09 02:22:10;;;;;;;69.05;27.77;;;13.40;99.90;;;;;;4963801;28;20053;-88
2021/07/09 02:24:37;;;;;;;67.63;28.90;;;13.40;99.90;;;;;;4990478;28;20072;-90
2021/07/09 02:27:04;;;;;;;77.50;31.98;;;13.40;99.90;;;;;;4949734;28;20290;-91
2021/07/09 02:29:32;;;;;;;94.50;35.22;;;13.50;99.90;;;;;;4988561;28;20073;-92
2021/07/09 02:32:03;;;;;;;98.25;35.70;;;13.50;99.90;;;;;;4975746;28;20042;-93
2021/07/09 02:34:30;;;;;;;115.78;40.65;;;13.60;99.90;;;;;;4973767;28;20076;-92
2021/07/09 02:36:57;;;;;;;81.68;33.75;;;13.80;99.90;;;;;;4999865;28;20038;-91
2021/07/09 02:39:26;;;;;;;109.68;39.17;;;13.90;99.90;;;;;;4994499;28;20394;-90
2021/07/09 02:41:53;;;;;;;126.00;44.15;;;14.00;99.90;;;;;;4983623;28;20104;-89
2021/07/09 02:44:19;;;;;;;145.18;46.40;;;14.20;99.90;;;;;;5004907;28;20042;-90
2021/07/09 02:46:45;;;;;;;130.55;45.15;;;14.30;99.90;;;;;;4988791;28;20092;-89
2021/07/09 02:49:11;;;;;;;121.78;42.53;;;14.50;99.90;;;;;;4959136;28;20483;-90
2021/07/09 02:51:37;;;;;;;115.57;42.95;;;14.50;99.90;;;;;;4961663;28;20430;-88
2021/07/09 02:54:03;;;;;;;91.65;37.10;;;14.60;99.90;;;;;;5001200;28;20069;-87
2021/07/09 02:56:29;;;;;;;84.15;35.35;;;14.70;99.90;;;;;;4979884;28;20038;-89
2021/07/09 02:58:55;;;;;;;70.47;31.90;;;14.70;99.90;;;;;;4974643;28;20045;-89
2021/07/09 03:01:21;;;;;;;64.57;31.17;;;14.70;99.90;;;;;;4955463;28;20054;-89
2021/07/09 03:03:46;;;;;;;67.40;29.98;;;14.80;99.90;;;;;;4989021;28;20440;-89
2021/07/09 03:06:12;;;;;;;68.78;31.23;;;14.80;99.90;;;;;;4955454;28;20046;-88
2021/07/09 03:08:38;;;;;;;72.45;31.45;;;14.90;99.90;;;;;;4971206;28;20050;-89
2021/07/09 03:11:04;;;;;;;76.78;33.22;;;14.80;99.90;;;;;;4979375;28;20490;-89
2021/07/09 03:13:29;;;;;;;73.45;33.75;;;14.80;99.90;;;;;;4982366;28;20046;-89
2021/07/09 03:15:55;;;;;;;73.57;31.55;;;14.90;99.90;;;;;;4976814;28;20041;-88
2021/07/09 03:18:21;;;;;;;59.38;28.60;;;14.90;99.90;;;;;;5002808;28;20054;-89
2021/07/09 03:20:47;;;;;;;62.30;27.02;;;14.90;99.90;;;;;;4957860;28;20053;-88
2021/07/09 03:23:13;;;;;;;54.53;24.00;;;14.90;99.90;;;;;;4958710;28;20042;-88
2021/07/09 03:25:39;;;;;;;48.97;21.80;;;14.90;99.90;;;;;;4974226;28;20078;-89
2021/07/09 03:28:05;;;;;;;49.47;23.80;;;15.00;99.90;;;;;;4962249;28;20128;-89
2021/07/09 03:30:31;;;;;;;42.20;21.85;;;15.00;99.90;;;;;;4967407;28;20039;-88
2021/07/09 03:32:57;;;;;;;39.30;20.95;;;15.00;99.90;;;;;;4975839;28;20415;-89
2021/07/09 03:35:23;;;;;;;46.97;22.13;;;15.00;99.90;;;;;;4971052;28;20052;-89
2021/07/09 03:37:49;;;;;;;49.35;20.73;;;15.00;99.90;;;;;;5013331;28;20417;-89
2021/07/09 03:40:15;;;;;;;48.35;20.98;;;14.90;99.90;;;;;;4968717;28;20050;-89
2021/07/09 03:42:41;;;;;;;38.13;19.63;;;15.00;99.90;;;;;;4989588;28;20054;-89
2021/07/09 03:45:07;;;;;;;44.17;20.45;;;15.00;99.90;;;;;;4991409;28;20166;-89
2021/07/09 03:47:33;;;;;;;43.63;19.77;;;15.00;99.90;;;;;;5006487;28;20049;-91
2021/07/09 03:49:59;;;;;;;27.67;17.23;;;15.00;99.90;;;;;;4982772;28;20053;-90
2021/07/09 03:52:25;;;;;;;37.22;20.15;;;15.10;99.90;;;;;;4988369;28;20049;-89
2021/07/09 03:54:51;;;;;;;33.42;17.45;;;15.20;99.90;;;;;;4990354;28;20034;-89
2021/07/09 03:57:17;;;;;;;30.92;15.35;;;15.20;99.90;;;;;;4984912;28;20041;-89
2021/07/09 03:59:42;;;;;;;29.10;13.95;;;15.20;99.90;;;;;;4963886;28;20053;-91
2021/07/09 04:02:08;;;;;;;30.10;13.30;;;15.20;99.90;;;;;;4996532;28;20044;-91
2021/07/09 04:04:34;;;;;;;23.40;11.95;;;15.30;99.90;;;;;;4961218;28;20058;-90
2021/07/09 04:07:00;;;;;;;19.70;11.48;;;15.30;99.90;;;;;;4976340;28;20082;-90
2021/07/09 04:09:26;;;;;;;23.55;10.88;;;15.30;99.90;;;;;;4966931;28;20371;-90
2021/07/09 04:11:52;;;;;;;21.38;11.38;;;15.40;99.90;;;;;;4960742;28;20048;-91
2021/07/09 04:14:17;;;;;;;23.95;11.88;;;15.40;99.90;;;;;;4959621;28;20046;-91
2021/07/09 04:16:43;;;;;;;18.45;10.55;;;15.50;99.90;;;;;;4982550;28;20125;-91
2021/07/09 04:19:11;;;;;;;17.17;10.50;;;15.50;99.90;;;;;;4968000;28;20043;-91
2021/07/09 04:21:36;;;;;;;19.15;11.63;;;15.50;99.90;;;;;;4973853;28;20498;-92
2021/07/09 04:24:03;;;;;;;13.32;8.30;;;15.50;99.90;;;;;;4973648;28;20053;-89
2021/07/09 04:26:28;;;;;;;13.65;9.07;;;15.60;99.90;;;;;;4957872;28;20043;-89
2021/07/09 04:28:54;;;;;;;16.50;9.05;;;15.60;99.90;;;;;;4973105;28;20074;-91
2021/07/09 04:31:20;;;;;;;13.93;8.30;;;15.70;99.90;;;;;;4976376;28;20043;-88
2021/07/09 04:33:50;;;;;;;14.52;7.78;;;15.70;99.90;;;;;;4993665;28;20478;-90
2021/07/09 04:36:16;;;;;;;10.70;6.82;;;15.70;99.90;;;;;;4990831;28;20113;-90
2021/07/09 04:38:43;;;;;;;9.90;6.75;;;15.80;99.90;;;;;;4969898;28;20487;-91
2021/07/09 04:41:09;;;;;;;17.65;8.27;;;15.80;99.90;;;;;;4957084;28;20125;-90
2021/07/09 04:43:38;;;;;;;10.60;6.95;;;15.80;99.90;;;;;;4974054;28;20475;-92
2021/07/09 04:46:05;;;;;;;12.80;7.03;;;15.80;99.90;;;;;;4962359;28;20435;-92
2021/07/09 04:48:32;;;;;;;21.83;9.85;;;15.90;99.90;;;;;;4981936;28;20034;-91
2021/07/09 04:51:01;;;;;;;26.08;11.55;;;15.90;99.90;;;;;;4980640;28;20379;-92
2021/07/09 04:53:29;;;;;;;17.60;11.13;;;15.90;99.90;;;;;;4973809;28;20047;-92
2021/07/09 04:55:55;;;;;;;15.65;9.93;;;15.90;99.90;;;;;;4980623;28;20066;-92
2021/07/09 04:58:21;;;;;;;12.40;8.85;;;16.00;99.90;;;;;;4992249;28;20716;-92
2021/07/09 05:00:47;;;;;;;13.63;8.57;;;16.00;99.90;;;;;;4978378;28;20054;-89
2021/07/09 05:03:13;;;;;;;16.45;9.48;;;16.00;99.90;;;;;;4964269;28;20092;-89
2021/07/09 05:05:43;;;;;;;8.68;6.13;;;16.00;99.90;;;;;;4957400;28;20130;-92
2021/07/09 05:08:09;;;;;;;11.90;6.82;;;16.10;99.90;;;;;;4973161;28;20198;-89
2021/07/09 05:10:35;;;;;;;8.55;7.13;;;16.10;99.90;;;;;;4971733;28;20070;-89
2021/07/09 05:13:07;;;;;;;11.27;7.15;;;16.10;99.90;;;;;;4985923;28;20262;-90
2021/07/09 05:15:33;;;;;;;13.60;9.55;;;16.10;99.90;;;;;;4973486;28;20070;-90
2021/07/09 05:17:59;;;;;;;13.02;7.43;;;16.20;99.90;;;;;;4979231;28;20081;-89
2021/07/09 05:20:27;;;;;;;11.90;8.10;;;16.20;99.90;;;;;;4963324;28;20129;-90
2021/07/09 05:22:52;;;;;;;11.57;6.97;;;16.20;99.90;;;;;;4987008;28;20043;-90
2021/07/09 05:25:18;;;;;;;10.93;7.63;;;16.20;99.90;;;;;;4960871;28;20086;-90
2021/07/09 05:27:44;;;;;;;9.10;7.43;;;16.30;99.90;;;;;;4971322;28;20054;-93
2021/07/09 05:30:11;;;;;;;8.38;5.97;;;16.30;99.90;;;;;;4991678;28;20046;-88
2021/07/09 05:32:39;;;;;;;10.93;5.97;;;16.30;99.90;;;;;;4958358;28;20043;-88
2021/07/09 05:35:06;;;;;;;8.68;4.57;;;16.30;99.90;;;;;;4985167;28;20667;-89
2021/07/09 05:37:32;;;;;;;22.23;6.15;;;16.40;99.90;;;;;;4972389;28;20047;-90
2021/07/09 05:39:58;;;;;;;17.85;5.70;;;16.30;99.90;;;;;;4978457;28;20046;-89
2021/07/09 05:42:24;;;;;;;15.23;6.97;;;16.40;99.90;;;;;;4975762;28;20375;-90
2021/07/09 05:44:51;;;;;;;21.73;7.25;;;16.40;99.90;;;;;;4991435;28;20070;-90
2021/07/09 05:47:17;;;;;;;11.45;5.35;;;16.50;99.90;;;;;;4982355;28;20043;-89
2021/07/09 05:49:43;;;;;;;10.32;6.38;;;16.50;99.90;;;;;;4956425;28;20105;-90
2021/07/09 05:52:09;;;;;;;14.32;8.25;;;16.50;99.90;;;;;;4955881;28;20452;-89
2021/07/09 05:54:36;;;;;;;9.18;7.05;;;16.50;99.90;;;;;;4972313;28;20043;-90
2021/07/09 05:57:02;;;;;;;11.30;7.47;;;16.50;99.90;;;;;;4982522;28;20039;-89
2021/07/09 05:59:28;;;;;;;12.18;8.20;;;16.50;99.90;;;;;;4968716;28;20126;-89
2021/07/09 06:01:54;;;;;;;13.43;8.48;;;16.60;99.90;;;;;;4985167;28;20042;-90
2021/07/09 06:04:20;;;;;;;16.63;9.60;;;16.60;99.90;;;;;;4997662;28;20060;-90
2021/07/09 06:06:46;;;;;;;11.20;7.45;;;16.70;99.90;;;;;;4961884;28;20082;-94
2021/07/09 06:09:12;;;;;;;14.57;8.38;;;16.70;99.90;;;;;;4979431;28;20042;-90
2021/07/09 06:11:38;;;;;;;17.52;8.27;;;16.70;99.90;;;;;;4992684;28;20053;-90
2021/07/09 06:14:05;;;;;;;11.38;7.80;;;16.80;99.90;;;;;;4967432;28;20050;-90
2021/07/09 06:16:31;;;;;;;14.25;8.07;;;16.80;99.90;;;;;;4939965;28;20126;-90
2021/07/09 06:18:58;;;;;;;15.80;9.32;;;16.80;99.90;;;;;;4999417;28;20835;-90
2021/07/09 06:21:27;;;;;;;11.18;7.45;;;16.80;99.90;;;;;;4974808;28;20050;-88
2021/07/09 06:23:54;;;;;;;13.60;7.70;;;16.80;99.90;;;;;;5004506;28;20117;-88
2021/07/09 06:26:21;;;;;;;14.27;7.50;;;16.90;99.90;;;;;;4997844;28;20042;-90
2021/07/09 06:28:47;;;;;;;11.80;7.47;;;16.90;99.90;;;;;;4994366;28;20042;-92
2021/07/09 06:31:13;;;;;;;10.57;7.70;;;17.00;99.90;;;;;;4977815;28;20046;-89
2021/07/09 06:33:40;;;;;;;14.35;7.18;;;17.00;99.90;;;;;;4974998;28;20115;-89
2021/07/09 06:36:05;;;;;;;11.75;6.57;;;17.20;99.90;;;;;;4958902;28;20042;-90
2021/07/09 06:38:31;;;;;;;10.20;6.28;;;17.20;99.90;;;;;;4987525;28;20449;-89
2021/07/09 06:40:57;;;;;;;14.75;6.65;;;17.20;99.90;;;;;;4958944;28;20053;-93
2021/07/09 06:43:23;;;;;;;12.93;6.15;;;17.20;99.90;;;;;;4996745;28;20042;-91
2021/07/09 06:45:49;;;;;;;15.38;5.63;;;17.20;99.90;;;;;;4983124;28;20145;-91
2021/07/09 06:48:18;;;;;;;12.00;6.32;;;17.20;99.90;;;;;;4973701;28;20042;-89
2021/07/09 06:50:44;;;;;;;12.48;6.75;;;17.30;99.90;;;;;;4991904;28;20045;-92
2021/07/09 06:53:10;;;;;;;5.47;4.97;;;17.30;99.90;;;;;;4972999;28;20042;-90
2021/07/09 06:55:36;;;;;;;14.55;5.53;;;17.30;99.90;;;;;;4990654;28;20069;-90
2021/07/09 06:58:03;;;;;;;5.68;4.78;;;17.30;99.90;;;;;;4973281;28;20069;-90
2021/07/09 07:00:29;;;;;;;7.75;4.70;;;17.40;99.90;;;;;;4977072;28;20402;-91
2021/07/09 07:02:54;;;;;;;6.00;4.78;;;17.40;99.90;;;;;;4977093;28;20046;-90
2021/07/09 07:05:20;;;;;;;7.70;5.15;;;17.40;99.90;;;;;;4977022;28;20059;-88
2021/07/09 07:07:46;;;;;;;6.32;4.70;;;17.50;99.90;;;;;;4975137;28;20042;-88
2021/07/09 07:10:13;;;;;;;4.70;4.13;;;17.50;99.90;;;;;;4979783;28;20564;-90
2021/07/09 07:12:41;;;;;;;6.80;4.80;;;17.60;99.90;;;;;;4980600;28;20051;-89
2021/07/09 07:15:08;;;;;;;5.28;3.92;;;17.60;99.90;;;;;;4981488;28;20050;-87
2021/07/09 07:17:37;;;;;;;7.28;4.20;;;17.60;99.90;;;;;;4973820;28;20050;-86
2021/07/09 07:20:04;;;;;;;9.73;5.57;;;17.70;99.90;;;;;;4994600;28;20560;-86
2021/07/09 07:22:30;;;;;;;7.30;3.95;;;17.70;99.90;;;;;;4959730;28;20050;-88
2021/07/09 07:24:55;;;;;;;6.68;4.57;;;17.60;99.90;;;;;;4961832;28;20384;-87
2021/07/09 07:27:24;;;;;;;6.50;4.10;;;17.70;99.90;;;;;;4974579;28;20486;-87
2021/07/09 07:29:50;;;;;;;6.25;4.35;;;17.70;99.90;;;;;;4978500;28;20085;-88
2021/07/09 07:32:16;;;;;;;6.18;4.70;;;17.70;99.90;;;;;;4979054;28;20497;-88
2021/07/09 07:34:43;;;;;;;6.53;3.88;;;17.80;99.90;;;;;;4962317;28;20062;-88
2021/07/09 07:37:09;;;;;;;6.35;3.60;;;18.00;99.90;;;;;;4958491;28;20074;-88
2021/07/09 07:39:36;;;;;;;7.20;3.63;;;18.00;99.90;;;;;;4976259;28;20046;-86
2021/07/09 07:42:02;;;;;;;4.75;3.65;;;18.10;99.90;;;;;;4985734;28;20046;-88
2021/07/09 07:44:28;;;;;;;7.10;3.42;;;18.20;99.90;;;;;;4972802;28;20039;-87
2021/07/09 07:46:55;;;;;;;5.45;3.45;;;18.30;99.90;;;;;;4969134;28;20043;-92
2021/07/09 07:49:22;;;;;;;6.20;3.35;;;18.30;99.90;;;;;;4982439;28;20482;-88
2021/07/09 07:51:50;;;;;;;2.92;2.67;;;18.30;99.90;;;;;;4975506;28;20081;-88
2021/07/09 07:54:16;;;;;;;3.30;3.00;;;18.40;99.90;;;;;;4958297;28;20035;-87
2021/07/09 07:56:42;;;;;;;5.63;2.95;;;18.50;99.90;;;;;;4958423;28;20042;-87
2021/07/09 07:59:08;;;;;;;6.68;2.50;;;18.60;99.90;;;;;;4973926;28;20039;-89
2021/07/09 08:01:34;;;;;;;5.63;3.00;;;18.70;99.90;;;;;;4975493;28;20386;-88
2021/07/09 08:04:04;;;;;;;4.57;3.00;;;18.60;99.90;;;;;;4974930;28;20062;-88
2021/07/09 08:06:30;;;;;;;4.13;2.67;;;18.70;99.90;;;;;;4953027;28;20296;-87
2021/07/09 08:08:56;;;;;;;4.65;2.55;;;18.80;99.90;;;;;;4970727;28;20053;-92
2021/07/09 08:11:22;;;;;;;4.43;2.80;;;18.90;99.90;;;;;;4981295;28;20115;-87
2021/07/09 08:13:48;;;;;;;2.55;2.35;;;18.90;99.90;;;;;;4964412;28;20075;-87
2021/07/09 08:16:14;;;;;;;3.92;3.08;;;18.90;99.90;;;;;;4956968;28;20042;-87
2021/07/09 08:18:43;;;;;;;6.60;3.50;;;18.90;99.90;;;;;;4958087;28;20053;-85
2021/07/09 08:21:09;;;;;;;2.88;2.60;;;19.00;99.90;;;;;;4951837;28;20055;-83
2021/07/09 08:23:35;;;;;;;8.32;2.92;;;19.10;99.90;;;;;;4954021;28;20058;-84
2021/07/09 08:26:01;;;;;;;2.47;2.22;;;19.20;99.90;;;;;;4956926;28;20494;-85
2021/07/09 08:28:28;;;;;;;4.30;2.45;;;19.20;99.90;;;;;;4941604;28;20042;-87
2021/07/09 08:30:54;;;;;;;3.38;2.38;;;19.30;99.90;;;;;;4946872;28;20042;-88
2021/07/09 08:33:20;;;;;;;2.95;2.47;;;19.30;99.90;;;;;;4958143;28;20137;-87
2021/07/09 08:35:46;;;;;;;3.05;2.25;;;19.40;99.90;;;;;;4965209;28;20042;-86
2021/07/09 08:38:12;;;;;;;2.67;2.47;;;19.40;99.90;;;;;;4986980;28;20391;-88
2021/07/09 08:40:39;;;;;;;4.05;2.45;;;19.30;99.90;;;;;;4972708;28;20054;-91
2021/07/09 08:43:05;;;;;;;3.10;2.40;;;19.30;99.90;;;;;;4951633;28;20495;-89
2021/07/09 08:45:31;;;;;;;4.95;3.33;;;19.30;99.90;;;;;;4972904;28;20054;-89
2021/07/09 08:47:59;;;;;;;5.13;2.42;;;19.30;99.90;;;;;;4967291;28;20464;-90
2021/07/09 08:50:25;;;;;;;2.83;2.38;;;19.30;99.90;;;;;;4954797;28;20043;-87
2021/07/09 08:52:52;;;;;;;2.75;2.53;;;19.50;99.90;;;;;;4939456;28;20050;-88
2021/07/09 08:55:19;;;;;;;4.32;2.00;;;19.60;99.90;;;;;;4971734;28;20125;-89
2021/07/09 08:57:47;;;;;;;5.28;2.30;;;19.80;99.90;;;;;;4956491;28;20074;-87
2021/07/09 09:00:22;;;;;;;6.22;2.65;;;19.70;99.90;;;;;;4955669;28;20077;-87
2021/07/09 09:02:48;;;;;;;6.05;2.38;;;19.60;99.90;;;;;;4955983;28;20046;-87
2021/07/09 09:05:21;;;;;;;2.67;2.42;;;19.50;99.90;;;;;;4966435;28;20148;-88
2021/07/09 09:08:01;;;;;;;4.07;1.98;;;19.50;99.90;;;;;;4976242;28;20090;-86
2021/07/09 09:10:38;;;;;;;4.25;2.38;;;19.30;99.90;;;;;;4981411;28;20070;-88
2021/07/09 09:13:16;;;;;;;4.18;2.40;;;19.20;99.90;;;;;;4977454;28;20081;-89
2021/07/09 09:16:02;;;;;;;3.10;2.72;;;19.10;99.90;;;;;;4978638;28;20039;-88
2021/07/09 09:18:30;;;;;;;2.83;2.60;;;19.10;99.90;;;;;;4986156;28;20045;-87
2021/07/09 09:21:04;;;;;;;2.90;2.50;;;19.20;99.90;;;;;;4971197;28;20479;-88
2021/07/09 09:23:32;;;;;;;5.68;2.15;;;19.30;99.90;;;;;;4979865;28;20112;-88
2021/07/09 09:25:59;;;;;;;2.30;2.17;;;19.40;99.90;;;;;;4957165;28;20384;-87
2021/07/09 09:28:25;;;;;;;3.53;2.60;;;19.50;99.90;;;;;;4957682;28;20042;-86
2021/07/09 09:30:54;;;;;;;5.93;2.53;;;19.60;99.90;;;;;;4975792;28;20039;-87
2021/07/09 09:33:21;;;;;;;2.30;2.10;;;19.60;99.90;;;;;;4967601;28;20281;-88
2021/07/09 09:35:53;;;;;;;3.38;2.20;;;19.40;99.90;;;;;;4968438;28;20050;-88
2021/07/09 09:38:25;;;;;;;6.05;2.58;;;19.30;99.90;;;;;;4984394;28;20097;-88
2021/07/09 09:40:51;;;;;;;4.75;2.63;;;19.30;99.90;;;;;;4977472;28;20043;-87
2021/07/09 09:43:19;;;;;;;3.00;2.60;;;19.20;99.90;;;;;;4946285;28;20801;-87
2021/07/09 09:45:57;;;;;;;5.32;2.90;;;19.30;99.90;;;;;;4971487;28;20061;-87
2021/07/09 09:48:32;;;;;;;2.92;2.70;;;19.30;99.90;;;;;;4971967;28;20464;-88
2021/07/09 09:50:58;;;;;;;5.15;3.00;;;19.30;99.90;;;;;;4974070;28;20407;-87
2021/07/09 09:53:35;;;;;;;4.10;2.40;;;19.30;99.90;;;;;;4968943;28;20046;-87
2021/07/09 09:56:06;;;;;;;8.43;2.33;;;19.30;99.90;;;;;;4973125;28;20043;-88
2021/07/09 09:58:35;;;;;;;2.75;2.42;;;19.30;99.90;;;;;;4957604;28;20117;-87
2021/07/09 10:01:03;;;;;;;7.18;3.05;;;19.30;99.90;;;;;;4967922;28;20035;-87
2021/07/09 10:03:29;;;;;;;3.78;2.30;;;19.20;99.90;;;;;;4972188;28;20097;-90
2021/07/09 10:05:56;;;;;;;2.97;2.70;;;19.20;99.90;;;;;;4955313;28;20431;-88
2021/07/09 10:08:26;;;;;;;4.40;2.90;;;19.10;99.90;;;;;;4971627;28;20072;-88
2021/07/09 10:10:52;;;;;;;3.10;2.40;;;19.20;99.90;;;;;;4958593;28;20043;-87
2021/07/09 10:13:21;;;;;;;2.88;2.58;;;19.20;99.90;;;;;;4949699;28;20050;-87
2021/07/09 10:15:53;;;;;;;3.05;2.53;;;19.10;99.90;;;;;;4974443;28;20038;-87
2021/07/09 10:18:20;;;;;;;6.45;2.38;;;19.00;99.90;;;;;;4938908;28;20079;-86
2021/07/09 10:20:48;;;;;;;3.53;2.67;;;18.90;99.90;;;;;;4971294;28;20054;-86
2021/07/09 10:23:17;;;;;;;3.60;2.83;;;19.10;99.90;;;;;;4978996;28;20082;-88
2021/07/09 10:25:48;;;;;;;6.82;2.67;;;19.10;99.90;;;;;;4974982;28;20046;-86
2021/07/09 10:28:19;;;;;;;4.45;2.65;;;19.30;99.90;;;;;;4953526;28;20043;-87
2021/07/09 10:30:45;;;;;;;3.05;2.72;;;19.30;99.90;;;;;;4975137;28;20455;-87
2021/07/09 10:33:34;;;;;;;4.88;3.10;;;19.20;99.90;;;;;;4962570;28;20042;-90
2021/07/09 10:36:26;;;;;;;4.30;2.97;;;19.20;99.90;;;;;;4984538;28;20096;-86
2021/07/09 10:38:53;;;;;;;4.07;2.65;;;19.10;99.90;;;;;;4957264;28;20042;-86
2021/07/09 10:41:19;;;;;;;5.72;3.38;;;19.20;99.90;;;;;;4975752;28;20043;-86
2021/07/09 10:44:14;;;;;;;3.20;2.78;;;19.10;99.90;;;;;;4977466;28;20031;-86
2021/07/09 10:46:41;;;;;;;3.75;2.70;;;19.20;99.90;;;;;;4978235;28;20068;-85
2021/07/09 10:49:07;;;;;;;4.03;2.63;;;19.10;99.90;;;;;;4940006;28;20050;-85
2021/07/09 10:51:50;;;;;;;2.63;2.42;;;19.00;99.90;;;;;;4937167;28;20922;-86
2021/07/09 10:54:26;;;;;;;3.50;2.58;;;19.10;99.90;;;;;;4957671;28;20150;-86
2021/07/09 10:57:18;;;;;;;4.38;3.40;;;19.20;99.90;;;;;;4977835;28;20038;-87
2021/07/09 11:00:22;;;;;;;9.10;3.10;;;19.20;99.90;;;;;;4980014;28;20431;-86
2021/07/09 11:02:58;;;;;;;5.22;3.25;;;19.20;99.90;;;;;;4967590;28;20047;-87
2021/07/09 11:05:42;;;;;;;5.05;3.55;;;19.20;99.90;;;;;;4976741;28;20056;-86
2021/07/09 11:08:32;;;;;;;2.92;2.80;;;19.40;99.90;;;;;;4991301;28;20093;-86
2021/07/09 11:11:07;;;;;;;2.97;2.78;;;19.50;99.90;;;;;;5000682;28;20066;-88
2021/07/09 11:13:49;;;;;;;5.70;2.95;;;19.60;99.90;;;;;;4980088;28;20072;-87
2021/07/09 11:16:24;;;;;;;2.88;2.67;;;19.60;99.90;;;;;;4988511;28;20097;-90
2021/07/09 11:19:05;;;;;;;6.35;2.80;;;19.50;99.90;;;;;;4969559;28;20061;-87
2021/07/09 11:21:30;;;;;;;3.08;2.78;;;19.40;99.90;;;;;;4975751;28;20124;-87
2021/07/09 11:23:57;;;;;;;3.08;2.85;;;19.40;99.90;;;;;;4985619;28;20084;-86
2021/07/09 11:26:25;;;;;;;4.00;3.20;;;19.40;99.90;;;;;;4990614;28;20046;-87
2021/07/09 11:28:51;;;;;;;5.32;3.20;;;19.50;99.90;;;;;;4962259;28;20130;-87
2021/07/09 11:31:41;;;;;;;3.95;2.53;;;19.60;99.90;;;;;;4975555;28;20667;-89
2021/07/09 11:34:12;;;;;;;3.67;2.95;;;19.70;99.90;;;;;;4980149;28;20112;-87
2021/07/09 11:36:46;;;;;;;2.75;2.53;;;19.80;99.90;;;;;;4998213;28;20038;-87
2021/07/09 11:39:13;;;;;;;3.53;2.88;;;19.80;99.90;;;;;;4995148;28;20568;-87
2021/07/09 11:41:59;;;;;;;5.30;2.60;;;19.80;99.90;;;;;;4977266;28;20498;-86
2021/07/09 11:44:35;;;;;;;4.35;2.55;;;19.80;99.90;;;;;;4974940;28;20120;-88
2021/07/09 11:47:04;;;;;;;3.10;2.70;;;19.70;99.90;;;;;;4988119;28;20045;-87
2021/07/09 11:49:33;;;;;;;6.30;2.97;;;19.60;99.90;;;;;;4995939;28;20050;-87
2021/07/09 11:52:02;;;;;;;2.88;2.67;;;19.50;99.90;;;;;;4978715;28;20041;-87
2021/07/09 11:54:31;;;;;;;4.40;2.80;;;19.60;99.90;;;;;;4993490;28;20053;-87
2021/07/09 11:57:00;;;;;;;4.57;2.60;;;19.60;99.90;;;;;;5012200;28;20308;-86
2021/07/09 11:59:26;;;;;;;3.85;2.35;;;19.60;99.90;;;;;;4980121;28;20070;-87
2021/07/09 12:02:10;;;;;;;6.00;2.70;;;19.60;99.90;;;;;;4986905;28;20042;-87
2021/07/09 12:04:41;;;;;;;4.15;2.78;;;19.60;99.90;;;;;;4999779;28;20058;-90
2021/07/09 12:07:16;;;;;;;4.80;3.08;;;19.70;99.90;;;;;;4962502;28;20046;-86
2021/07/09 12:09:44;;;;;;;2.97;2.67;;;19.70;99.90;;;;;;4975248;28;20049;-87
2021/07/09 12:12:10;;;;;;;4.97;2.92;;;19.80;99.90;;;;;;5004753;28;20495;-88
2021/07/09 12:14:54;;;;;;;3.30;2.70;;;20.00;99.90;;;;;;4980455;28;20038;-88
2021/07/09 12:17:21;;;;;;;3.75;2.60;;;20.10;99.90;;;;;;4975768;28;20042;-89
2021/07/09 12:20:08;;;;;;;3.45;2.63;;;20.10;99.90;;;;;;4976822;28;20042;-88
2021/07/09 12:22:38;;;;;;;5.60;2.70;;;20.30;99.90;;;;;;4991969;28;20097;-86
2021/07/09 12:25:07;;;;;;;3.58;2.63;;;20.40;99.90;;;;;;4992843;28;20046;-88
2021/07/09 12:27:35;;;;;;;7.43;2.90;;;20.40;99.90;;;;;;4992452;28;20038;-88
2021/07/09 12:30:08;;;;;;;3.25;2.42;;;20.60;99.90;;;;;;4990670;28;20066;-88
2021/07/09 12:32:45;;;;;;;2.80;2.60;;;20.70;99.90;;;;;;4974932;28;20409;-86
2021/07/09 12:35:12;;;;;;;4.35;2.80;;;20.80;99.90;;;;;;4992950;28;20072;-87
2021/07/09 12:37:40;;;;;;;4.18;2.97;;;20.70;99.90;;;;;;4974158;28;20447;-87
2021/07/09 12:40:13;;;;;;;3.30;3.00;;;20.70;99.90;;;;;;4997381;28;20050;-87
2021/07/09 12:42:39;;;;;;;7.35;2.85;;;20.60;99.90;;;;;;4971587;28;20039;-87
2021/07/09 12:45:06;;;;;;;4.05;2.60;;;20.60;99.90;;;;;;4997858;28;20042;-88